Time;durP1;ratioP1;P1;durP2;ratioP2;P2;SDS_P1;SDS_P2;PMS_P1;PMS_P2;Temp;Humidity;BMP_temperature;BMP_pressure;BME280_temperature;BME280_humidity;BME280_pressure;Samples;Min_cycle;Max_cycle;Signal;HPM_P1;HPM_P2
2022/11/17 00:01:19;;;;;;;16.00;9.63;;;;;;;40.91;38.57;101062.34;5095516;28;20508;-72
2022/11/17 00:03:47;;;;;;;11.10;7.20;;;;;;;41.04;37.71;101056.72;5094056;28;20492;-73
2022/11/17 00:06:14;;;;;;;24.60;11.43;;;;;;;40.77;37.90;101060.56;5095484;28;20875;-73
2022/11/17 00:08:41;;;;;;;21.63;11.33;;;;;;;40.69;38.78;101061.38;5093687;28;20441;-73
2022/11/17 00:11:09;;;;;;;20.50;8.60;;;;;;;40.65;38.58;101052.25;5093871;28;20811;-73
2022/11/17 00:16:20;;;;;;;17.77;8.30;;;;;;;40.96;37.94;101054.03;5095193;28;20389;-73
2022/11/17 00:21:33;;;;;;;26.57;9.60;;;;;;;40.80;38.24;101045.53;5094657;28;20440;-73
2022/11/17 00:24:00;;;;;;;12.20;8.90;;;;;;;41.05;37.97;101046.63;5095324;28;20433;-73
2022/11/17 00:26:28;;;;;;;17.50;7.43;;;;;;;41.12;37.83;101036.03;5110628;28;20531;-73
2022/11/17 00:28:57;;;;;;;14.30;7.60;;;;;;;41.27;37.42;101040.19;5093285;28;20432;-73
2022/11/17 00:34:18;;;;;;;17.13;10.03;;;;;;;41.05;38.07;101038.47;5094012;28;20526;-73
2022/11/17 00:36:50;;;;;;;13.57;8.60;;;;;;;41.34;37.20;101027.69;5110581;28;20515;-74
2022/11/17 00:39:18;;;;;;;14.33;8.13;;;;;;;41.16;37.88;101020.66;5093067;28;20787;-73
2022/11/17 00:41:46;;;;;;;21.67;9.73;;;;;;;41.45;36.96;101021.88;5093297;28;20480;-73
2022/11/17 00:44:15;;;;;;;46.30;10.27;;;;;;;41.22;37.19;101019.38;5092812;28;20799;-73
2022/11/17 00:46:44;;;;;;;13.53;9.00;;;;;;;41.45;36.63;101009.06;5093312;28;20444;-73
2022/11/17 00:49:15;;;;;;;10.73;8.30;;;;;;;41.55;36.59;101008.69;5095346;28;21052;-73
2022/11/17 00:51:41;;;;;;;19.93;8.70;;;;;;;41.38;37.22;101008.00;5112461;28;20479;-73
2022/11/17 00:54:10;;;;;;;20.70;10.03;;;;;;;41.36;36.92;101012.94;5112404;27;20620;-73
2022/11/17 00:56:36;;;;;;;17.80;9.50;;;;;;;41.28;37.06;101006.38;5113106;28;20450;-73
2022/11/17 00:59:02;;;;;;;21.77;10.30;;;;;;;41.16;36.95;101012.50;5113476;28;20527;-73
2022/11/17 01:01:29;;;;;;;17.73;9.23;;;;;;;41.04;37.00;101007.75;5113500;28;20906;-73
2022/11/17 01:04:04;;;;;;;27.40;9.10;;;;;;;41.26;36.72;100998.56;5113159;28;20824;-73
2022/11/17 01:06:37;;;;;;;17.57;9.23;;;;;;;41.40;36.51;101001.09;5113138;28;20416;-73
2022/11/17 01:09:06;;;;;;;19.30;9.13;;;;;;;41.22;37.04;100986.72;5113228;28;20439;-73
2022/11/17 01:11:33;;;;;;;16.23;8.53;;;;;;;41.32;36.54;100991.84;5113001;28;20450;-73
2022/11/17 01:14:02;;;;;;;23.53;10.73;;;;;;;41.09;37.00;100990.44;5113079;28;20830;-74
2022/11/17 01:16:29;;;;;;;17.80;8.80;;;;;;;40.97;37.48;100991.13;5114403;28;20400;-72
2022/11/17 01:18:59;;;;;;;17.97;8.23;;;;;;;41.04;37.32;100968.84;5112653;28;20454;-74
2022/11/17 01:21:27;;;;;;;20.40;7.70;;;;;;;40.92;37.52;100974.16;5095926;28;20451;-73
2022/11/17 01:23:54;;;;;;;16.70;7.20;;;;;;;41.25;37.24;100969.75;5114160;28;20890;-73
2022/11/17 01:26:31;;;;;;;23.00;9.80;;;;;;;41.11;37.39;100960.97;5112486;28;20436;-73
2022/11/17 01:28:59;;;;;;;19.97;11.80;;;;;;;41.24;37.26;100968.13;5112463;28;20515;-74
2022/11/17 01:31:28;;;;;;;15.10;9.10;;;;;;;40.72;37.74;100962.03;5112403;28;20962;-73
2022/11/17 01:33:54;;;;;;;11.93;7.40;;;;;;;40.33;38.67;100954.84;5112593;28;20459;-73
2022/11/17 01:37:17;;;;;;;20.53;9.53;;;;;;;40.31;38.24;100955.16;5113703;28;20869;-73
2022/11/17 01:39:16;;;;;;;16.57;9.60;;;;;;;41.01;37.54;100953.19;5113646;28;20423;-73
2022/11/17 01:41:42;;;;;;;15.87;8.13;;;;;;;41.15;37.20;100947.53;5113270;28;20782;-73
2022/11/17 01:44:51;;;;;;;18.90;10.53;;;;;;;40.92;37.34;100949.69;5113622;28;20805;-73
2022/11/17 01:47:41;;;;;;;12.90;8.77;;;;;;;41.05;37.30;100949.47;5111428;28;20423;-73
2022/11/17 01:50:17;;;;;;;21.80;11.90;;;;;;;40.96;37.57;100951.44;5113591;28;20934;-73
2022/11/17 01:52:44;;;;;;;17.07;7.90;;;;;;;40.95;37.43;100949.03;5091970;28;20471;-73
2022/11/17 01:55:11;;;;;;;19.33;9.50;;;;;;;40.91;37.85;100948.09;5093261;28;20397;-73
2022/11/17 01:57:51;;;;;;;31.47;9.43;;;;;;;40.93;37.45;100946.63;5093386;28;20879;-73
2022/11/17 02:00:17;;;;;;;23.20;10.07;;;;;;;40.72;37.63;100946.50;5091822;28;20797;-73
2022/11/17 02:02:45;;;;;;;18.83;9.70;;;;;;;40.58;38.17;100935.03;5091617;28;20918;-73
2022/11/17 02:05:48;;;;;;;16.63;8.10;;;;;;;41.08;37.10;100927.06;5074829;28;20432;-73
2022/11/17 02:08:19;;;;;;;19.23;9.57;;;;;;;41.13;36.80;100939.69;5076754;28;20432;-73
2022/11/17 02:10:49;;;;;;;19.87;9.83;;;;;;;41.07;36.53;100933.63;5075277;28;20473;-73
2022/11/17 02:13:14;;;;;;;13.50;7.30;;;;;;;41.10;36.21;100934.88;5091395;28;20467;-73
2022/11/17 02:15:40;;;;;;;14.90;8.93;;;;;;;40.66;37.53;100930.69;5074615;28;20432;-73
2022/11/17 02:18:06;;;;;;;20.97;8.23;;;;;;;40.97;37.45;100930.47;5091937;28;20696;-74
2022/11/17 02:20:53;;;;;;;14.80;8.47;;;;;;;41.02;37.31;100922.91;5092011;28;20210;-73
2022/11/17 02:24:01;;;;;;;24.60;10.10;;;;;;;41.43;36.15;100928.81;5091385;28;20419;-73
2022/11/17 02:26:48;;;;;;;13.07;7.50;;;;;;;41.33;35.80;100919.13;5093009;28;20396;-73
2022/11/17 02:29:31;;;;;;;15.43;7.97;;;;;;;41.26;36.25;100922.34;5091460;28;20431;-73
2022/11/17 02:32:08;;;;;;;17.00;8.00;;;;;;;41.65;35.63;100923.09;5091527;28;20480;-73
2022/11/17 02:35:02;;;;;;;21.30;8.53;;;;;;;41.55;35.75;100909.84;5092946;28;20995;-74
2022/11/17 02:37:49;;;;;;;18.13;8.13;;;;;;;41.51;35.79;100912.47;5074113;28;20421;-73
2022/11/17 02:40:36;;;;;;;16.10;9.30;;;;;;;41.49;35.45;100913.91;5091156;28;20490;-73
2022/11/17 02:46:10;;;;;;;22.53;8.90;;;;;;;41.48;35.69;100904.13;5092706;28;20442;-73
2022/11/17 02:48:40;;;;;;;17.03;8.70;;;;;;;41.38;35.87;100908.06;5091151;28;20915;-74
2022/11/17 02:51:16;;;;;;;17.07;6.33;;;;;;;41.48;35.64;100895.97;5098293;28;20981;-73
2022/11/17 02:53:43;;;;;;;12.87;8.47;;;;;;;41.72;35.27;100903.50;5111541;28;20463;-74
2022/11/17 02:56:09;;;;;;;9.57;7.50;;;;;;;41.54;35.62;100900.09;5111342;28;20436;-73
2022/11/17 02:58:35;;;;;;;13.47;6.67;;;;;;;41.09;36.93;100892.47;5114455;28;20436;-73
2022/11/17 03:01:30;;;;;;;15.87;8.30;;;;;;;41.18;36.32;100890.50;5115700;28;20826;-73
2022/11/17 03:04:08;;;;;;;30.37;9.47;;;;;;;41.51;35.83;100898.03;5116823;28;20190;-74
2022/11/17 03:06:59;;;;;;;15.30;8.27;;;;;;;41.30;36.08;100898.75;5115499;28;20438;-73
2022/11/17 03:09:52;;;;;;;17.93;8.70;;;;;;;41.44;36.14;100900.50;5116940;28;20794;-73
2022/11/17 03:12:35;;;;;;;19.30;7.03;;;;;;;41.13;36.33;100898.88;5115157;28;20443;-73
2022/11/17 03:15:09;;;;;;;16.10;9.93;;;;;;;41.16;36.63;100895.47;5115084;28;20510;-72
2022/11/17 03:17:51;;;;;;;29.43;9.17;;;;;;;41.24;36.14;100883.75;5115304;28;20419;-72
2022/11/17 03:20:56;;;;;;;21.27;7.90;;;;;;;41.30;35.79;100893.31;5116731;28;20958;-73
2022/11/17 03:23:31;;;;;;;16.97;8.50;;;;;;;41.42;35.41;100883.66;5092215;28;20416;-73
2022/11/17 03:25:59;;;;;;;15.40;8.00;;;;;;;41.22;36.21;100888.72;5116538;28;20408;-73
2022/11/17 03:28:31;;;;;;;26.67;10.40;;;;;;;41.18;36.47;100882.34;5116400;28;20400;-73
2022/11/17 03:31:00;;;;;;;16.63;7.60;;;;;;;41.47;35.98;100880.75;5115107;28;20420;-73
2022/11/17 03:33:28;;;;;;;25.63;8.40;;;;;;;40.86;36.63;100885.66;5115084;28;20497;-73
2022/11/17 03:36:10;;;;;;;23.70;7.80;;;;;;;41.14;36.30;100886.06;5097572;28;20489;-72
2022/11/17 03:38:41;;;;;;;15.30;6.60;;;;;;;41.33;36.12;100889.97;5116450;28;20400;-73
2022/11/17 03:41:11;;;;;;;29.67;8.17;;;;;;;41.11;36.58;100884.78;5116642;28;20396;-73
2022/11/17 03:43:37;;;;;;;12.23;7.30;;;;;;;41.16;36.78;100890.03;5114988;28;20432;-73
2022/11/17 03:46:09;;;;;;;23.40;7.87;;;;;;;41.19;37.12;100878.50;5114769;28;20438;-73
2022/11/17 03:48:44;;;;;;;13.33;7.53;;;;;;;41.26;36.48;100878.00;5114341;28;20431;-74
2022/11/17 03:51:21;;;;;;;20.13;8.90;;;;;;;41.45;36.25;100881.09;5114430;28;20561;-72
2022/11/17 03:53:49;;;;;;;22.40;8.60;;;;;;;41.43;36.01;100894.22;5114375;28;20512;-73
2022/11/17 03:56:20;;;;;;;26.83;9.23;;;;;;;40.74;36.46;100878.97;5114267;28;20451;-72
2022/11/17 03:59:00;;;;;;;11.73;7.77;;;;;;;40.91;36.32;100880.06;5114314;28;20420;-73
2022/11/17 04:01:29;;;;;;;12.93;8.47;;;;;;;40.90;35.90;100887.44;5114504;28;20427;-73
2022/11/17 04:03:55;;;;;;;14.03;8.70;;;;;;;40.59;36.55;100884.97;5114182;28;20471;-73
2022/11/17 04:06:21;;;;;;;30.00;10.20;;;;;;;40.79;36.46;100886.97;5115958;28;20432;-73
2022/11/17 04:08:47;;;;;;;15.30;7.77;;;;;;;41.01;35.62;100888.69;5114711;28;20419;-73
2022/11/17 04:16:42;;;;;;;16.50;7.87;;;;;;;41.07;35.98;100887.38;5115294;28;20407;-76
2022/11/17 04:19:08;;;;;;;21.33;9.40;;;;;;;41.16;35.79;100887.31;5114117;28;20420;-76
2022/11/17 04:21:34;;;;;;;21.77;9.10;;;;;;;40.81;36.50;100884.72;5114153;28;20924;-73
2022/11/17 04:23:59;;;;;;;13.90;7.97;;;;;;;41.06;36.09;100890.41;5115442;28;20815;-74
2022/11/17 04:29:10;;;;;;;25.63;8.43;;;;;;;40.89;36.17;100885.81;5115283;28;20249;-73
2022/11/17 04:31:36;;;;;;;13.80;7.23;;;;;;;40.62;37.01;100889.72;5113727;28;20510;-73
2022/11/17 04:34:04;;;;;;;9.63;7.83;;;;;;;40.98;36.34;100889.31;5114109;28;20198;-73
2022/11/17 04:36:34;;;;;;;17.20;8.83;;;;;;;41.08;35.84;100902.56;5115214;28;20436;-73
2022/11/17 04:39:00;;;;;;;15.23;8.37;;;;;;;41.13;35.84;100896.16;5113712;28;20477;-72
2022/11/17 04:44:15;;;;;;;13.43;9.93;;;;;;;41.40;35.75;100910.44;5114870;28;20485;-73
2022/11/17 04:46:45;;;;;;;13.80;9.73;;;;;;;41.08;36.44;100909.94;5113397;28;20416;-73
2022/11/17 04:49:12;;;;;;;15.90;10.53;;;;;;;40.82;37.23;100912.69;5113235;28;20475;-72
2022/11/17 04:51:38;;;;;;;17.60;12.27;;;;;;;40.96;37.74;100910.63;5112993;28;20493;-73
2022/11/17 04:54:06;;;;;;;26.53;11.37;;;;;;;41.05;37.24;100918.75;5114803;28;20873;-73
2022/11/17 04:56:33;;;;;;;20.10;13.30;;;;;;;40.81;37.66;100911.91;5113132;28;20483;-73
2022/11/17 04:59:02;;;;;;;24.23;12.50;;;;;;;40.21;38.47;100920.97;5113358;28;20440;-73
2022/11/17 05:01:29;;;;;;;25.80;13.27;;;;;;;40.38;38.11;100928.28;5113303;28;20423;-73
2022/11/17 05:04:01;;;;;;;18.07;12.47;;;;;;;40.44;38.41;100928.94;5112990;28;20564;-73
2022/11/17 05:06:38;;;;;;;21.23;12.10;;;;;;;40.67;38.47;100932.28;5112949;28;20427;-73
2022/11/17 05:09:07;;;;;;;20.60;13.90;;;;;;;40.88;37.83;100932.38;5113411;28;20486;-73
2022/11/17 05:14:23;;;;;;;27.77;15.87;;;;;;;40.92;37.35;100933.34;5114132;28;20497;-73
2022/11/17 05:17:08;;;;;;;24.70;16.50;;;;;;;41.10;37.44;100940.34;5112998;28;20427;-73
2022/11/17 05:19:39;;;;;;;23.77;15.17;;;;;;;40.43;38.25;100946.38;5113099;28;20428;-73
2022/11/17 05:24:51;;;;;;;21.43;13.33;;;;;;;40.70;38.20;100956.09;5114204;28;20383;-72
2022/11/17 05:27:17;;;;;;;24.93;17.57;;;;;;;40.89;37.41;100958.47;5112870;28;20420;-73
2022/11/17 05:29:43;;;;;;;22.57;17.63;;;;;;;40.17;38.65;100957.25;5113415;28;20947;-72
2022/11/17 05:32:12;;;;;;;26.27;17.70;;;;;;;40.75;37.63;100961.38;5112505;28;20451;-73
2022/11/17 05:34:38;;;;;;;23.93;17.60;;;;;;;40.71;38.23;100966.66;5112737;28;20456;-72
2022/11/17 05:37:04;;;;;;;32.60;20.67;;;;;;;40.51;38.39;100970.03;5095464;28;20488;-72
2022/11/17 05:39:30;;;;;;;30.70;21.77;;;;;;;40.75;37.82;100970.31;5112867;28;20177;-73
2022/11/17 05:41:55;;;;;;;32.17;23.10;;;;;;;40.64;37.71;100977.25;5112987;28;20458;-72
2022/11/17 05:44:22;;;;;;;34.07;18.90;;;;;;;40.83;37.77;100976.88;5112568;28;20177;-72
2022/11/17 05:46:48;;;;;;;25.33;19.67;;;;;;;40.76;37.86;100974.66;5112649;28;20269;-73
2022/11/17 05:49:13;;;;;;;23.93;18.27;;;;;;;40.52;38.24;100985.25;5112480;28;20527;-73
2022/11/17 05:51:39;;;;;;;33.60;20.67;;;;;;;40.39;38.30;100980.72;5111976;28;20472;-73
2022/11/17 05:54:05;;;;;;;28.67;22.77;;;;;;;40.47;38.43;100993.53;5113611;28;20263;-73
2022/11/17 05:56:47;;;;;;;48.37;25.70;;;;;;;40.37;38.42;100983.78;5112134;28;20184;-72
2022/11/17 05:59:41;;;;;;;43.27;23.27;;;;;;;40.27;38.48;100992.28;5112118;28;20495;-73
2022/11/17 06:02:26;;;;;;;31.80;19.50;;;;;;;40.38;38.66;100988.09;5094597;28;20941;-78
2022/11/17 06:04:52;;;;;;;26.23;17.77;;;;;;;40.42;38.33;100993.69;5112239;28;20416;-72
2022/11/17 06:07:19;;;;;;;31.83;21.33;;;;;;;40.52;37.98;100994.22;5112605;28;20419;-72
2022/11/17 06:09:45;;;;;;;33.57;20.13;;;;;;;40.31;38.13;101004.09;5111891;28;20416;-73
2022/11/17 06:12:11;;;;;;;39.73;21.00;;;;;;;40.52;38.28;101012.44;5112084;28;20475;-72
2022/11/17 06:14:38;;;;;;;26.23;20.20;;;;;;;40.54;38.50;101008.28;5111842;28;20490;-72
2022/11/17 06:17:23;;;;;;;30.07;20.40;;;;;;;40.37;38.29;101019.13;5111859;28;20465;-72
2022/11/17 06:20:04;;;;;;;32.10;22.07;;;;;;;40.17;38.77;101015.13;5096444;28;20476;-72
2022/11/17 06:22:30;;;;;;;30.30;20.03;;;;;;;40.44;38.22;101026.78;5094833;28;20435;-72
2022/11/17 06:24:57;;;;;;;30.43;18.50;;;;;;;40.57;37.94;101020.41;5111727;28;20419;-72
2022/11/17 06:27:24;;;;;;;28.30;18.67;;;;;;;40.22;38.57;101031.28;5113478;28;20407;-72
2022/11/17 06:29:51;;;;;;;30.17;22.70;;;;;;;40.15;38.12;101024.72;5111817;28;20424;-72
2022/11/17 06:32:18;;;;;;;27.87;19.60;;;;;;;40.23;38.44;101027.44;5112299;28;20917;-72
2022/11/17 06:34:46;;;;;;;33.03;19.73;;;;;;;40.13;38.20;101035.09;5115967;28;20463;-72
2022/11/17 06:37:12;;;;;;;42.83;20.83;;;;;;;40.49;37.94;101038.34;5117458;28;20400;-72
2022/11/17 06:39:38;;;;;;;33.40;21.10;;;;;;;40.35;37.88;101032.25;5116241;28;20415;-72
2022/11/17 07:23:34;;;;;;;33.40;22.50;;;;;;;39.74;40.24;101069.31;5109623;27;20604;-73
2022/11/17 07:26:00;;;;;;;37.33;24.43;;;;;;;39.94;39.49;101073.38;5070704;28;20433;-72
2022/11/17 07:28:27;;;;;;;33.00;22.17;;;;;;;40.23;38.95;101097.28;5071395;28;20475;-72
2022/11/17 07:30:53;;;;;;;35.03;23.80;;;;;;;40.33;38.82;101102.44;5054836;28;20535;-72
2022/11/17 07:33:19;;;;;;;38.07;25.30;;;;;;;40.06;39.22;101098.03;5070976;28;20928;-72
2022/11/17 07:35:45;;;;;;;38.70;23.97;;;;;;;39.93;39.19;101107.88;5071309;28;20944;-72
2022/11/17 07:38:11;;;;;;;32.40;24.50;;;;;;;40.46;38.74;101106.13;5070900;28;20525;-72
2022/11/17 07:40:37;;;;;;;35.23;25.30;;;;;;;40.75;37.97;101106.31;5070949;28;20784;-72
2022/11/17 07:43:03;;;;;;;39.00;23.90;;;;;;;40.34;38.60;101108.69;5089565;28;20413;-73
2022/11/17 07:45:29;;;;;;;28.33;22.90;;;;;;;40.70;37.66;101109.22;5070800;28;20829;-72
2022/11/17 07:47:57;;;;;;;32.37;23.73;;;;;;;40.47;38.45;101114.00;5071287;28;20954;-72
2022/11/17 07:50:25;;;;;;;33.17;23.30;;;;;;;40.22;39.05;101110.09;5071011;28;20448;-71
2022/11/17 07:52:53;;;;;;;27.97;21.27;;;;;;;40.71;37.95;101113.53;5070875;28;20482;-72
2022/11/17 07:55:20;;;;;;;42.90;22.20;;;;;;;40.62;38.14;101110.00;5070952;28;20435;-74
2022/11/17 07:57:46;;;;;;;33.13;23.23;;;;;;;40.11;38.96;101106.06;5070557;28;20874;-72
2022/11/17 08:00:13;;;;;;;40.93;22.67;;;;;;;40.12;39.01;101113.09;5070860;28;20943;-72
2022/11/17 08:02:40;;;;;;;40.87;24.80;;;;;;;39.66;39.98;101111.63;5070417;28;20459;-70
2022/11/17 08:05:06;;;;;;;29.10;21.00;;;;;;;40.43;38.49;101118.44;5070692;28;20447;-74
2022/11/17 08:07:32;;;;;;;32.90;19.53;;;;;;;39.37;40.13;101117.50;5070545;28;20508;-73
2022/11/17 08:09:58;;;;;;;27.40;21.70;;;;;;;40.12;39.02;101118.53;5070598;28;20524;-73
2022/11/17 08:12:24;;;;;;;32.47;22.23;;;;;;;39.91;39.27;101122.91;5067269;28;20195;-72
2022/11/17 08:14:49;;;;;;;30.30;19.83;;;;;;;39.95;39.76;101126.56;5055945;28;20257;-70
2022/11/17 08:17:16;;;;;;;42.80;23.67;;;;;;;40.59;38.20;101123.44;5050866;28;20187;-71
2022/11/17 08:19:42;;;;;;;30.73;23.30;;;;;;;40.88;37.97;101128.25;5050263;28;20590;-72
2022/11/17 08:22:08;;;;;;;28.80;20.73;;;;;;;40.92;37.62;101131.97;5049664;28;20487;-72
2022/11/17 08:24:34;;;;;;;40.60;23.30;;;;;;;41.15;37.56;101125.22;5036943;28;20427;-73
2022/11/17 08:27:00;;;;;;;35.83;20.63;;;;;;;41.21;37.52;101126.66;5036946;28;20203;-73
2022/11/17 08:29:25;;;;;;;27.07;22.27;;;;;;;41.32;36.97;101127.13;5037017;28;20180;-72
2022/11/17 08:31:51;;;;;;;31.53;20.27;;;;;;;40.84;37.93;101125.38;5036675;28;20700;-72
2022/11/17 08:34:18;;;;;;;28.80;17.80;;;;;;;41.26;37.29;101122.97;5055004;28;20184;-72
2022/11/17 08:36:43;;;;;;;29.00;18.07;;;;;;;40.66;38.22;101137.38;5054755;28;20734;-72
2022/11/17 08:39:09;;;;;;;28.40;15.10;;;;;;;41.23;37.71;101124.41;5036926;28;20419;-72
2022/11/17 08:41:35;;;;;;;27.13;14.90;;;;;;;41.08;37.68;101133.88;5054604;28;20199;-73
2022/11/17 08:44:01;;;;;;;24.33;15.00;;;;;;;41.34;37.13;101130.34;5036693;28;20492;-72
2022/11/17 08:46:27;;;;;;;25.00;15.20;;;;;;;41.06;37.47;101129.84;5036572;28;20513;-71
2022/11/17 08:48:53;;;;;;;25.60;15.63;;;;;;;41.36;37.06;101133.53;5036636;28;20422;-72
2022/11/17 08:51:19;;;;;;;15.57;13.00;;;;;;;40.94;37.48;101127.78;5036669;28;20841;-73
2022/11/17 08:53:45;;;;;;;22.47;15.67;;;;;;;41.32;36.95;101133.41;5036464;28;20427;-73
2022/11/17 08:56:12;;;;;;;24.77;16.87;;;;;;;41.57;36.00;101129.00;5036889;28;20219;-72
2022/11/17 08:58:44;;;;;;;28.63;16.00;;;;;;;41.91;35.92;101127.28;5036449;28;20245;-71
2022/11/17 09:01:14;;;;;;;30.20;15.87;;;;;;;41.65;36.16;101126.56;5023349;28;21062;-72
2022/11/17 09:03:42;;;;;;;27.50;15.73;;;;;;;41.45;36.29;101130.81;5054406;28;20453;-71
2022/11/17 09:06:09;;;;;;;21.73;14.57;;;;;;;40.97;37.54;101131.81;5036229;28;20510;-73
2022/11/17 09:08:35;;;;;;;22.13;15.70;;;;;;;41.46;36.56;101137.84;5036442;28;20445;-72
2022/11/17 09:11:10;;;;;;;27.30;14.83;;;;;;;41.66;36.13;101131.69;5036007;28;20870;-74
2022/11/17 09:13:37;;;;;;;25.30;15.20;;;;;;;41.73;35.96;101140.16;5036285;28;20215;-73
2022/11/17 09:16:05;;;;;;;25.60;15.80;;;;;;;41.92;35.86;101147.94;5035964;28;20840;-73
2022/11/17 09:18:32;;;;;;;22.07;12.70;;;;;;;41.69;35.62;101136.50;5036201;28;20510;-73
2022/11/17 09:21:05;;;;;;;21.70;10.93;;;;;;;41.79;35.94;101138.88;5035607;28;20467;-74
2022/11/17 09:23:31;;;;;;;20.53;11.77;;;;;;;42.06;35.57;101129.47;5035866;28;20438;-74
2022/11/17 09:25:58;;;;;;;25.37;11.30;;;;;;;42.09;35.41;101128.78;5036001;28;20505;-72
2022/11/17 09:28:25;;;;;;;42.20;23.80;;;;;;;41.91;35.35;101130.00;5035763;28;20522;-72
2022/11/17 09:30:52;;;;;;;27.23;17.70;;;;;;;42.14;35.44;101136.00;5035941;28;20423;-72
2022/11/17 09:33:18;;;;;;;52.80;33.90;;;;;;;42.38;35.01;101130.75;5035561;28;20464;-72
2022/11/17 09:35:45;;;;;;;31.60;18.53;;;;;;;42.06;35.23;101128.66;5034994;28;20426;-71
2022/11/17 09:38:11;;;;;;;20.20;13.40;;;;;;;42.01;35.34;101131.56;5035686;28;20433;-71
2022/11/17 09:40:40;;;;;;;18.53;11.30;;;;;;;42.24;34.70;101130.19;5035469;28;20415;-73
2022/11/17 09:43:32;;;;;;;32.90;20.93;;;;;;;42.32;34.81;101134.78;5035727;28;20496;-78
2022/11/17 09:46:14;;;;;;;21.70;17.80;;;;;;;42.27;34.62;101140.44;5023474;28;20469;-71
2022/11/17 09:48:47;;;;;;;19.63;13.40;;;;;;;42.39;34.31;101137.78;5035317;28;20437;-72
2022/11/17 09:51:19;;;;;;;27.97;10.13;;;;;;;42.54;34.54;101143.78;5035437;28;20438;-74
2022/11/17 09:53:54;;;;;;;20.33;9.80;;;;;;;42.44;33.95;101139.53;5035466;28;20508;-75
2022/11/17 09:56:20;;;;;;;13.90;9.67;;;;;;;42.47;34.67;101132.59;5053679;28;20456;-72
2022/11/17 09:58:49;;;;;;;22.60;10.40;;;;;;;42.63;34.38;101139.91;5035053;28;20433;-71
2022/11/17 10:01:18;;;;;;;19.90;9.30;;;;;;;42.49;34.40;101133.09;5035288;28;20561;-73
2022/11/17 10:03:46;;;;;;;14.97;10.00;;;;;;;42.52;34.30;101135.94;5035240;28;20813;-74
2022/11/17 10:06:17;;;;;;;27.60;8.87;;;;;;;42.59;34.57;101135.44;5035413;28;20446;-71
2022/11/17 10:09:18;;;;;;;17.37;9.77;;;;;;;42.53;34.20;101134.78;5035108;28;20821;-73
2022/11/17 10:11:46;;;;;;;14.33;9.20;;;;;;;42.48;34.35;101129.56;4971930;28;20430;-72
2022/11/17 10:14:15;;;;;;;20.70;8.23;;;;;;;42.25;34.78;101125.53;5034739;28;20445;-73
2022/11/17 10:16:49;;;;;;;17.10;9.30;;;;;;;42.43;34.57;101123.50;5034964;28;20478;-71
2022/11/17 10:19:23;;;;;;;18.83;9.67;;;;;;;42.43;34.67;101115.31;5034790;28;20926;-73
2022/11/17 10:21:56;;;;;;;22.20;10.57;;;;;;;42.60;34.09;101109.75;5034570;28;20490;-74
2022/11/17 10:24:35;;;;;;;18.17;9.57;;;;;;;42.65;34.26;101115.81;5034703;28;20414;-71
2022/11/17 10:27:17;;;;;;;22.53;12.20;;;;;;;42.53;34.10;101114.91;5034807;28;20462;-71
2022/11/17 10:30:08;;;;;;;13.30;9.80;;;;;;;42.64;34.27;101108.75;5034779;28;20930;-71
2022/11/17 10:32:37;;;;;;;11.73;8.73;;;;;;;42.50;34.60;101107.41;5024363;28;20480;-71
2022/11/17 10:35:24;;;;;;;20.33;14.17;;;;;;;42.57;34.43;101103.03;5034682;28;20465;-71
2022/11/17 10:38:00;;;;;;;12.43;10.67;;;;;;;42.26;34.98;101116.22;5034536;28;20446;-72
2022/11/17 10:40:27;;;;;;;17.80;10.17;;;;;;;42.47;34.61;101105.31;5034418;28;20426;-72
2022/11/17 10:43:24;;;;;;;13.50;10.50;;;;;;;42.75;34.04;101108.34;5034598;28;20466;-72
2022/11/17 10:45:52;;;;;;;21.37;11.17;;;;;;;42.40;34.81;101100.41;5037139;28;20441;-72
2022/11/17 10:48:39;;;;;;;20.17;10.43;;;;;;;42.39;34.97;101096.09;5034438;28;20426;-70
2022/11/17 10:51:21;;;;;;;18.93;10.93;;;;;;;42.25;35.37;101093.63;5022581;28;20443;-73
2022/11/17 10:54:20;;;;;;;24.90;14.20;;;;;;;42.48;35.18;101085.09;5034279;28;20422;-74
2022/11/17 10:56:49;;;;;;;19.90;14.53;;;;;;;42.37;34.47;101079.28;5034156;28;20426;-74
2022/11/17 10:59:17;;;;;;;36.93;22.10;;;;;;;42.27;34.92;101080.44;5034352;28;20953;-74
2022/11/17 11:01:47;;;;;;;22.10;13.97;;;;;;;42.30;35.24;101079.81;5033990;28;20466;-73
2022/11/17 11:04:35;;;;;;;17.93;9.87;;;;;;;42.51;34.54;101077.06;5034311;28;20517;-73
2022/11/17 11:07:12;;;;;;;16.47;11.27;;;;;;;42.55;34.32;101069.81;5034286;28;20422;-73
2022/11/17 11:10:01;;;;;;;22.47;8.93;;;;;;;42.48;35.00;101072.28;5052306;28;20442;-74
2022/11/17 11:12:53;;;;;;;17.13;10.47;;;;;;;42.32;35.27;101066.63;5034082;28;20465;-73
2022/11/17 11:15:21;;;;;;;15.50;10.33;;;;;;;42.28;35.80;101060.22;5034392;28;20419;-74
2022/11/17 11:17:47;;;;;;;19.40;10.53;;;;;;;42.22;35.52;101053.38;5034279;28;20446;-74
2022/11/17 11:20:16;;;;;;;15.53;9.47;;;;;;;42.41;35.06;101044.72;5034345;28;20449;-75
2022/11/17 11:23:08;;;;;;;22.60;9.43;;;;;;;42.21;35.49;101037.38;5034031;28;21092;-75
2022/11/17 11:25:40;;;;;;;13.60;10.20;;;;;;;42.64;35.00;101047.94;5034098;28;20446;-75
2022/11/17 11:28:57;;;;;;;16.10;10.13;;;;;;;42.63;34.84;101044.41;5033896;28;21044;-76
2022/11/17 11:31:52;;;;;;;23.30;9.60;;;;;;;42.91;34.29;101038.38;4980337;28;20902;-74
2022/11/17 11:34:30;;;;;;;19.10;10.97;;;;;;;42.89;34.25;101019.59;5023798;28;20509;-74
2022/11/17 11:37:10;;;;;;;10.00;9.13;;;;;;;42.82;34.22;101011.19;5033786;28;20443;-75
2022/11/17 11:40:21;;;;;;;23.93;9.80;;;;;;;42.98;33.78;101010.53;5033879;28;20984;-76
2022/11/17 11:42:57;;;;;;;21.40;9.63;;;;;;;42.54;34.87;101002.78;4991320;28;20474;-74
2022/11/17 11:45:45;;;;;;;13.40;10.70;;;;;;;42.51;34.49;101000.69;5051876;28;20426;-75
2022/11/17 11:48:26;;;;;;;15.93;10.47;;;;;;;42.60;34.17;100982.38;5034205;28;20425;-74
2022/11/17 11:50:58;;;;;;;24.23;10.93;;;;;;;42.64;34.23;100982.47;5051667;28;20450;-74
2022/11/17 11:53:26;;;;;;;16.77;10.33;;;;;;;42.61;34.23;100980.44;5033887;28;20430;-75
2022/11/17 11:56:08;;;;;;;21.97;10.43;;;;;;;42.27;34.41;100965.94;5033735;28;20462;-75
2022/11/17 11:58:45;;;;;;;13.00;9.37;;;;;;;42.86;33.92;100982.09;5035488;28;20491;-75
2022/11/17 12:01:14;;;;;;;15.90;9.33;;;;;;;42.60;34.39;100971.47;5024547;28;20465;-75
2022/11/17 12:04:28;;;;;;;19.70;12.87;;;;;;;43.00;34.05;100975.53;5037633;28;20423;-76
2022/11/17 12:07:18;;;;;;;16.83;10.53;;;;;;;42.71;33.79;100969.09;4984916;28;20462;-76
2022/11/17 12:10:00;;;;;;;19.57;10.57;;;;;;;42.33;35.11;100967.34;5043002;28;20922;-74
2022/11/17 12:12:42;;;;;;;19.43;9.90;;;;;;;42.17;35.28;100966.34;5037217;28;20445;-76
2022/11/17 12:15:17;;;;;;;15.50;11.63;;;;;;;42.17;35.33;100957.38;5055355;28;20882;-76
2022/11/17 12:18:02;;;;;;;30.63;13.47;;;;;;;42.53;35.43;100956.72;5037220;28;20426;-76
2022/11/17 12:20:37;;;;;;;18.93;11.10;;;;;;;42.84;34.19;100948.88;5037098;28;20422;-76
2022/11/17 12:23:32;;;;;;;18.23;11.50;;;;;;;42.79;34.08;100951.84;5036890;28;20470;-76
2022/11/17 12:26:00;;;;;;;15.80;11.30;;;;;;;42.97;33.40;100936.06;5037138;28;20430;-75
2022/11/17 12:28:34;;;;;;;13.77;10.73;;;;;;;43.07;33.82;100932.91;5036870;28;20433;-75
2022/11/17 12:31:05;;;;;;;16.43;10.47;;;;;;;42.17;35.10;100925.47;5055054;28;20442;-76
2022/11/17 12:33:53;;;;;;;20.23;11.20;;;;;;;42.66;34.53;100933.81;5036895;28;20509;-76
2022/11/17 12:36:34;;;;;;;20.53;12.03;;;;;;;42.78;34.67;100925.66;5036643;28;20426;-76
2022/11/17 12:39:02;;;;;;;15.17;10.27;;;;;;;43.09;33.62;100921.63;5023496;28;20945;-77
2022/11/17 12:41:47;;;;;;;24.03;11.10;;;;;;;42.94;34.06;100923.09;5036672;28;20528;-76
2022/11/17 12:44:34;;;;;;;14.23;10.10;;;;;;;42.93;33.83;100913.31;5036852;28;20439;-76
2022/11/17 12:47:14;;;;;;;17.67;10.40;;;;;;;42.92;33.71;100917.97;5036682;28;20433;-76